Southampton Township, NJ

11:27 PM EST on March 05, 2015 (GMT -0500)
NJWxNet SILAS LITTLE - NJ USFS | Change Station
CLOSE
Current Station
Personal Weather Station
Location: New Lisbon, NJ
Elevation: 108 ft
Nearby Weather Stations

Elev 108 ft 39.91 °N, 74.60 °W | Updated 200 days ago

Partly Cloudy
Partly Cloudy
14 °F
Feels Like 2 °F
N
9
Wind Variable Wind from NNW
Gusts 17 mph

Today
High -- | Low -- °F
--% Chance of Precip.
Yesterday
High -- | Low -- °F
Precip. -- in
6:26 AM 5:54 PM
Full, 100% visible
Pressure 30.37 in
Visibility 9.0 miles
Clouds Overcast 11000 ft
Windchill 2 °F
Dew Point 5 °F
Humidity 68%
Rainfall in
Snow Depth Not available.
UV 0 out of 12
Pollen .60 out of 12
Air Quality Not available.
Flu Activity Not available.
METAR KWRI 060358Z AUTO 31014KT 9SM OVC110 M07/M12 A3035 RMK AO2 SLP283 T10691124

More Conditions Fewer Conditions

Pressure 30.37 in
Visibility 9.0 miles
Clouds Overcast 11000 ft
Windchill 2 °F
Dew Point 5 °F
Humidity 68%
Rainfall in
Snow Depth Not available.
UV 0 out of 12
Pollen .60 out of 12
Air Quality Not available.
Flu Activity Not available.
METAR KWRI 060358Z AUTO 31014KT 9SM OVC110 M07/M12 A3035 RMK AO2 SLP283 T10691124

More Conditions Fewer Conditions

10-Day Weather Forecast

Almanac

Astronomy

Mar. 05, 2015 Rise Set
Actual Time
Civil Twilight
Nautical Twilight
Astronomical Twilight
Moon
Length of Visible Light
Length of Day
Tomorrow will be .
, % of the Moon is Illuminated

Today's Extremes

State Highs State Lows

Community

WunderPhotos

Upload Photos

1,803,176 photos uploaded!

WunderBlogs® & News

Nearby

Air Quality

  Air Quality AQ Index Pollutant
Not available.

Snow Depth

Station Depth Elevation

Earthquake Activity

City Distance Mag. Time & Date
Minimum magnitude displayed is 2.5.

Coastal Water Temperatures

Place Temperature

Nearby Weather Stations